sensor_id;sensor_type;location;lat;lon;timestamp;pressure;altitude;pressure_sealevel;temperature;humidity
75549;BME280;64133;56.002;37.208;2023-06-10T00:02:18;99506.62;;;9.36;62.58
75549;BME280;64133;56.002;37.208;2023-06-10T00:07:23;99506.02;;;9.38;62.68
75549;BME280;64133;56.002;37.208;2023-06-10T00:12:28;99503.38;;;9.38;62.76
75549;BME280;64133;56.002;37.208;2023-06-10T00:17:33;99501.67;;;9.31;62.90
75549;BME280;64133;56.002;37.208;2023-06-10T00:22:37;99507.13;;;9.17;63.28
75549;BME280;64133;56.002;37.208;2023-06-10T00:27:42;99512.63;;;9.14;63.49
75549;BME280;64133;56.002;37.208;2023-06-10T00:32:47;99515.12;;;9.10;63.63
75549;BME280;64133;56.002;37.208;2023-06-10T00:37:51;99518.92;;;9.06;63.86
75549;BME280;64133;56.002;37.208;2023-06-10T00:42:56;99521.06;;;9.06;63.90
75549;BME280;64133;56.002;37.208;2023-06-10T00:48:01;99529.52;;;9.04;64.00
75549;BME280;64133;56.002;37.208;2023-06-10T00:53:05;99539.03;;;8.94;64.24
75549;BME280;64133;56.002;37.208;2023-06-10T00:58:10;99541.39;;;8.92;64.39
75549;BME280;64133;56.002;37.208;2023-06-10T01:03:15;99537.72;;;8.94;64.44
75549;BME280;64133;56.002;37.208;2023-06-10T01:08:22;99543.12;;;8.98;64.72
75549;BME280;64133;56.002;37.208;2023-06-10T01:13:24;99553.58;;;9.11;64.57
75549;BME280;64133;56.002;37.208;2023-06-10T01:18:31;99563.75;;;9.16;64.48
75549;BME280;64133;56.002;37.208;2023-06-10T01:23:36;99561.48;;;9.17;64.55
75549;BME280;64133;56.002;37.208;2023-06-10T01:28:43;99563.56;;;9.24;64.44
75549;BME280;64133;56.002;37.208;2023-06-10T01:33:47;99567.50;;;9.24;64.53
75549;BME280;64133;56.002;37.208;2023-06-10T01:38:51;99580.29;;;9.23;64.52
75549;BME280;64133;56.002;37.208;2023-06-10T01:43:55;99580.22;;;9.12;64.66
75549;BME280;64133;56.002;37.208;2023-06-10T01:49:00;99587.83;;;9.10;64.94
75549;BME280;64133;56.002;37.208;2023-06-10T01:54:05;99586.72;;;9.19;64.80
75549;BME280;64133;56.002;37.208;2023-06-10T01:59:10;99595.58;;;9.24;64.67
75549;BME280;64133;56.002;37.208;2023-06-10T02:04:14;99603.63;;;9.34;64.50
75549;BME280;64133;56.002;37.208;2023-06-10T02:09:19;99607.78;;;9.30;64.53
75549;BME280;64133;56.002;37.208;2023-06-10T02:14:23;99610.63;;;9.46;64.42
75549;BME280;64133;56.002;37.208;2023-06-10T02:19:28;99614.39;;;9.60;64.06
75549;BME280;64133;56.002;37.208;2023-06-10T02:24:33;99613.02;;;9.78;63.58
75549;BME280;64133;56.002;37.208;2023-06-10T02:29:37;99623.37;;;9.93;63.20
75549;BME280;64133;56.002;37.208;2023-06-10T02:34:42;99617.63;;;9.93;62.95
75549;BME280;64133;56.002;37.208;2023-06-10T02:39:47;99620.08;;;9.78;62.96
75549;BME280;64133;56.002;37.208;2023-06-10T02:44:51;99586.41;;;9.59;63.17
75549;BME280;64133;56.002;37.208;2023-06-10T02:49:56;99626.75;;;10.06;62.53
75549;BME280;64133;56.002;37.208;2023-06-10T02:55:01;99633.08;;;10.09;62.29
75549;BME280;64133;56.002;37.208;2023-06-10T03:00:07;99639.04;;;10.00;62.68
75549;BME280;64133;56.002;37.208;2023-06-10T03:05:14;99640.47;;;10.34;61.93
75549;BME280;64133;56.002;37.208;2023-06-10T03:10:18;99644.20;;;10.42;61.33
75549;BME280;64133;56.002;37.208;2023-06-10T03:15:23;99643.02;;;10.69;61.10
75549;BME280;64133;56.002;37.208;2023-06-10T03:20:28;99647.33;;;10.98;60.07
75549;BME280;64133;56.002;37.208;2023-06-10T03:25:32;99651.04;;;11.06;59.59
75549;BME280;64133;56.002;37.208;2023-06-10T03:30:37;99647.26;;;11.31;58.88
75549;BME280;64133;56.002;37.208;2023-06-10T03:35:41;99644.66;;;11.64;57.96
75549;BME280;64133;56.002;37.208;2023-06-10T03:40:46;99649.19;;;11.73;56.99
75549;BME280;64133;56.002;37.208;2023-06-10T03:45:51;99655.25;;;12.53;55.97
75549;BME280;64133;56.002;37.208;2023-06-10T03:50:56;99647.33;;;17.72;48.13
75549;BME280;64133;56.002;37.208;2023-06-10T03:56:00;99643.92;;;26.64;33.68
75549;BME280;64133;56.002;37.208;2023-06-10T04:01:05;99656.94;;;30.47;26.66
75549;BME280;64133;56.002;37.208;2023-06-10T04:06:10;99661.00;;;31.00;25.19
75549;BME280;64133;56.002;37.208;2023-06-10T04:11:14;99666.63;;;32.88;22.84
75549;BME280;64133;56.002;37.208;2023-06-10T04:16:19;99675.05;;;32.86;21.39
75549;BME280;64133;56.002;37.208;2023-06-10T04:21:24;99673.88;;;34.10;20.13
75549;BME280;64133;56.002;37.208;2023-06-10T04:26:29;99681.59;;;33.33;20.46
75549;BME280;64133;56.002;37.208;2023-06-10T04:31:34;99678.48;;;36.35;16.87
75549;BME280;64133;56.002;37.208;2023-06-10T04:36:38;99685.19;;;37.30;15.73
75549;BME280;64133;56.002;37.208;2023-06-10T04:41:43;99686.25;;;35.88;16.13
75549;BME280;64133;56.002;37.208;2023-06-10T04:46:48;99689.34;;;33.54;17.35
75549;BME280;64133;56.002;37.208;2023-06-10T04:51:52;99693.45;;;35.77;15.74
75549;BME280;64133;56.002;37.208;2023-06-10T04:56:57;99694.59;;;35.03;15.35
75549;BME280;64133;56.002;37.208;2023-06-10T05:02:02;99703.22;;;37.38;13.35
75549;BME280;64133;56.002;37.208;2023-06-10T05:07:07;99708.67;;;35.51;14.26
75549;BME280;64133;56.002;37.208;2023-06-10T05:12:12;99703.69;;;34.45;14.92
75549;BME280;64133;56.002;37.208;2023-06-10T05:22:36;99715.84;;;36.96;12.55
75549;BME280;64133;56.002;37.208;2023-06-10T05:27:41;99708.71;;;40.14;10.98
75549;BME280;64133;56.002;37.208;2023-06-10T05:32:46;99721.86;;;39.56;10.92
75549;BME280;64133;56.002;37.208;2023-06-10T05:37:51;99718.02;;;40.72;10.25
75549;BME280;64133;56.002;37.208;2023-06-10T05:42:56;99727.63;;;43.64;8.94
75549;BME280;64133;56.002;37.208;2023-06-10T05:48:00;99737.18;;;30.16;15.57
75549;BME280;64133;56.002;37.208;2023-06-10T05:53:07;99733.95;;;31.86;15.22
75549;BME280;64133;56.002;37.208;2023-06-10T05:58:13;99730.66;;;28.30;17.37
75549;BME280;64133;56.002;37.208;2023-06-10T06:03:17;99742.10;;;30.33;15.88
75549;BME280;64133;56.002;37.208;2023-06-10T06:08:22;99739.20;;;24.36;20.48
75549;BME280;64133;56.002;37.208;2023-06-10T06:13:26;99737.77;;;26.10;19.78
75549;BME280;64133;56.002;37.208;2023-06-10T06:18:34;99738.09;;;36.95;12.50
75549;BME280;64133;56.002;37.208;2023-06-10T06:23:36;99744.69;;;42.11;9.46
75549;BME280;64133;56.002;37.208;2023-06-10T06:28:42;99750.80;;;37.60;10.58
75549;BME280;64133;56.002;37.208;2023-06-10T06:33:49;99754.77;;;24.54;20.01
75549;BME280;64133;56.002;37.208;2023-06-10T06:38:54;99754.00;;;21.00;23.98
75549;BME280;64133;56.002;37.208;2023-06-10T06:43:59;99756.95;;;20.91;25.14
75549;BME280;64133;56.002;37.208;2023-06-10T06:54:24;99758.43;;;34.65;13.64
75549;BME280;64133;56.002;37.208;2023-06-10T06:59:28;99779.09;;;33.30;13.73
75549;BME280;64133;56.002;37.208;2023-06-10T07:04:41;99784.17;;;21.28;23.07
75549;BME280;64133;56.002;37.208;2023-06-10T07:09:47;99777.84;;;34.23;14.14
75549;BME280;64133;56.002;37.208;2023-06-10T07:14:54;99782.44;;;28.41;17.55
75549;BME280;64133;56.002;37.208;2023-06-10T07:19:59;99780.75;;;38.42;11.82
75549;BME280;64133;56.002;37.208;2023-06-10T07:30:18;99782.45;;;41.52;8.11
75549;BME280;64133;56.002;37.208;2023-06-10T07:35:23;99794.06;;;40.81;8.58
75549;BME280;64133;56.002;37.208;2023-06-10T07:40:28;99798.06;;;38.45;9.73
75549;BME280;64133;56.002;37.208;2023-06-10T07:45:33;99793.41;;;35.32;10.32
75549;BME280;64133;56.002;37.208;2023-06-10T07:50:37;99790.13;;;39.07;9.32
75549;BME280;64133;56.002;37.208;2023-06-10T07:55:42;99767.36;;;38.17;9.47
75549;BME280;64133;56.002;37.208;2023-06-10T08:00:47;99801.58;;;39.72;8.92
75549;BME280;64133;56.002;37.208;2023-06-10T08:05:51;99799.46;;;37.12;10.28
75549;BME280;64133;56.002;37.208;2023-06-10T08:10:56;99808.70;;;38.31;9.00
75549;BME280;64133;56.002;37.208;2023-06-10T08:16:01;99805.97;;;34.00;11.17
75549;BME280;64133;56.002;37.208;2023-06-10T08:21:05;99808.83;;;34.97;10.92
75549;BME280;64133;56.002;37.208;2023-06-10T08:26:11;99818.73;;;28.00;14.23
75549;BME280;64133;56.002;37.208;2023-06-10T08:31:15;99811.66;;;31.69;12.16
75549;BME280;64133;56.002;37.208;2023-06-10T08:36:20;99817.53;;;30.86;12.09
75549;BME280;64133;56.002;37.208;2023-06-10T08:41:24;99818.77;;;26.95;14.70
75549;BME280;64133;56.002;37.208;2023-06-10T08:46:29;99821.93;;;24.62;17.21
75549;BME280;64133;56.002;37.208;2023-06-10T08:51:34;99820.47;;;24.53;17.68
75549;BME280;64133;56.002;37.208;2023-06-10T08:56:39;99837.17;;;21.22;20.82
75549;BME280;64133;56.002;37.208;2023-06-10T09:01:43;99838.91;;;19.36;22.90
75549;BME280;64133;56.002;37.208;2023-06-10T09:06:48;99835.01;;;20.38;22.37
75549;BME280;64133;56.002;37.208;2023-06-10T09:11:58;99833.03;;;20.00;22.53
75549;BME280;64133;56.002;37.208;2023-06-10T09:17:09;99830.48;;;20.84;21.70
75549;BME280;64133;56.002;37.208;2023-06-10T09:22:14;99833.83;;;20.63;21.32
75549;BME280;64133;56.002;37.208;2023-06-10T09:27:20;99841.72;;;19.55;23.13
75549;BME280;64133;56.002;37.208;2023-06-10T09:32:27;99835.75;;;19.92;23.91
75549;BME280;64133;56.002;37.208;2023-06-10T09:37:32;99836.48;;;18.69;25.39
75549;BME280;64133;56.002;37.208;2023-06-10T09:42:38;99838.05;;;19.64;25.13
75549;BME280;64133;56.002;37.208;2023-06-10T09:47:41;99838.91;;;19.96;24.24
75549;BME280;64133;56.002;37.208;2023-06-10T09:52:46;99831.61;;;21.72;22.97
75549;BME280;64133;56.002;37.208;2023-06-10T09:57:52;99841.16;;;21.07;22.00
75549;BME280;64133;56.002;37.208;2023-06-10T10:02:56;99837.55;;;20.31;22.43
75549;BME280;64133;56.002;37.208;2023-06-10T10:08:05;99827.88;;;21.28;21.97
75549;BME280;64133;56.002;37.208;2023-06-10T10:13:13;99827.16;;;21.39;21.74
75549;BME280;64133;56.002;37.208;2023-06-10T10:18:18;99829.84;;;21.01;22.71
75549;BME280;64133;56.002;37.208;2023-06-10T10:23:26;99836.89;;;19.50;23.77
75549;BME280;64133;56.002;37.208;2023-06-10T10:28:33;99838.61;;;19.19;24.91
75549;BME280;64133;56.002;37.208;2023-06-10T10:33:39;99836.14;;;18.84;25.12
75549;BME280;64133;56.002;37.208;2023-06-10T10:38:44;99828.77;;;18.62;25.40
75549;BME280;64133;56.002;37.208;2023-06-10T10:43:49;99823.77;;;19.20;24.95
75549;BME280;64133;56.002;37.208;2023-06-10T10:48:54;99835.77;;;18.67;25.28
75549;BME280;64133;56.002;37.208;2023-06-10T10:54:17;99837.12;;;20.15;23.52
75549;BME280;64133;56.002;37.208;2023-06-10T10:59:18;99839.30;;;19.08;24.40
75549;BME280;64133;56.002;37.208;2023-06-10T11:04:22;99838.61;;;18.57;25.42
75549;BME280;64133;56.002;37.208;2023-06-10T11:09:28;99836.45;;;19.86;24.84
75549;BME280;64133;56.002;37.208;2023-06-10T11:14:32;99840.28;;;20.50;24.43
75549;BME280;64133;56.002;37.208;2023-06-10T11:19:39;99835.33;;;20.39;24.68
75549;BME280;64133;56.002;37.208;2023-06-10T11:24:48;99845.27;;;19.39;25.72
75549;BME280;64133;56.002;37.208;2023-06-10T11:30:21;99846.31;;;18.97;26.17
75549;BME280;64133;56.002;37.208;2023-06-10T11:35:29;99844.03;;;19.70;25.14
75549;BME280;64133;56.002;37.208;2023-06-10T11:40:33;99850.45;;;21.38;23.72
75549;BME280;64133;56.002;37.208;2023-06-10T11:45:38;99848.39;;;20.38;24.31
75549;BME280;64133;56.002;37.208;2023-06-10T11:50:43;99852.02;;;20.41;24.76
75549;BME280;64133;56.002;37.208;2023-06-10T11:55:48;99850.19;;;20.72;24.16
75549;BME280;64133;56.002;37.208;2023-06-10T12:00:53;99861.76;;;19.59;25.53
75549;BME280;64133;56.002;37.208;2023-06-10T12:05:58;99859.28;;;18.47;26.60
75549;BME280;64133;56.002;37.208;2023-06-10T12:11:02;99868.17;;;18.93;26.43
75549;BME280;64133;56.002;37.208;2023-06-10T12:16:11;99860.91;;;19.54;25.61
75549;BME280;64133;56.002;37.208;2023-06-10T12:21:20;99872.07;;;20.18;24.44
75549;BME280;64133;56.002;37.208;2023-06-10T12:26:39;99876.72;;;19.84;24.08
75549;BME280;64133;56.002;37.208;2023-06-10T12:32:00;99880.91;;;17.81;25.68
75549;BME280;64133;56.002;37.208;2023-06-10T12:37:05;99868.12;;;17.67;26.30
75549;BME280;64133;56.002;37.208;2023-06-10T12:42:11;99872.50;;;18.02;26.28
75549;BME280;64133;56.002;37.208;2023-06-10T12:47:15;99863.63;;;18.52;25.86
75549;BME280;64133;56.002;37.208;2023-06-10T12:52:20;99854.95;;;18.46;25.96
75549;BME280;64133;56.002;37.208;2023-06-10T12:57:24;99858.33;;;17.68;26.91
75549;BME280;64133;56.002;37.208;2023-06-10T13:02:29;99863.70;;;17.46;28.28
75549;BME280;64133;56.002;37.208;2023-06-10T13:07:34;99868.32;;;17.70;28.77
75549;BME280;64133;56.002;37.208;2023-06-10T13:12:38;99866.34;;;18.89;27.98
75549;BME280;64133;56.002;37.208;2023-06-10T13:17:43;99866.50;;;18.71;28.00
75549;BME280;64133;56.002;37.208;2023-06-10T13:22:49;99868.78;;;18.42;28.27
75549;BME280;64133;56.002;37.208;2023-06-10T13:27:54;99875.42;;;17.31;28.98
75549;BME280;64133;56.002;37.208;2023-06-10T13:32:58;99877.31;;;17.39;29.45
75549;BME280;64133;56.002;37.208;2023-06-10T13:38:03;99881.66;;;16.28;30.66
75549;BME280;64133;56.002;37.208;2023-06-10T13:43:08;99880.60;;;16.57;31.07
75549;BME280;64133;56.002;37.208;2023-06-10T13:48:13;99882.74;;;17.29;30.81
75549;BME280;64133;56.002;37.208;2023-06-10T13:53:18;99881.34;;;17.73;30.20
75549;BME280;64133;56.002;37.208;2023-06-10T13:58:22;99890.50;;;17.22;30.84
75549;BME280;64133;56.002;37.208;2023-06-10T14:03:27;99883.95;;;16.73;30.83
75549;BME280;64133;56.002;37.208;2023-06-10T14:08:32;99889.54;;;16.70;31.40
75549;BME280;64133;56.002;37.208;2023-06-10T14:13:36;99895.22;;;17.32;30.67
75549;BME280;64133;56.002;37.208;2023-06-10T14:18:41;99894.40;;;17.10;30.38
75549;BME280;64133;56.002;37.208;2023-06-10T14:23:46;99898.83;;;16.34;31.69
75549;BME280;64133;56.002;37.208;2023-06-10T14:28:50;99900.95;;;15.89;32.19
75549;BME280;64133;56.002;37.208;2023-06-10T14:33:55;99896.16;;;15.93;32.08
75549;BME280;64133;56.002;37.208;2023-06-10T14:39:00;99883.99;;;16.77;31.41
75549;BME280;64133;56.002;37.208;2023-06-10T14:44:05;99886.57;;;17.30;30.16
75549;BME280;64133;56.002;37.208;2023-06-10T14:49:09;99885.20;;;17.74;29.70
75549;BME280;64133;56.002;37.208;2023-06-10T14:54:14;99891.67;;;17.24;30.42
75549;BME280;64133;56.002;37.208;2023-06-10T14:59:19;99891.77;;;17.36;30.82
75549;BME280;64133;56.002;37.208;2023-06-10T15:04:23;99901.25;;;17.61;30.18
75549;BME280;64133;56.002;37.208;2023-06-10T15:09:28;99901.21;;;16.55;30.65
75549;BME280;64133;56.002;37.208;2023-06-10T15:14:33;99902.87;;;16.56;30.68
75549;BME280;64133;56.002;37.208;2023-06-10T15:19:37;99904.83;;;16.22;30.55
75549;BME280;64133;56.002;37.208;2023-06-10T15:24:42;99908.66;;;15.59;31.62
75549;BME280;64133;56.002;37.208;2023-06-10T15:29:47;99905.50;;;15.69;31.84
75549;BME280;64133;56.002;37.208;2023-06-10T15:34:51;99911.16;;;15.61;32.12
75549;BME280;64133;56.002;37.208;2023-06-10T15:39:56;99907.27;;;14.93;33.08
75549;BME280;64133;56.002;37.208;2023-06-10T15:45:01;99912.24;;;14.72;33.92
75549;BME280;64133;56.002;37.208;2023-06-10T15:50:07;99914.74;;;14.64;34.37
75549;BME280;64133;56.002;37.208;2023-06-10T15:55:11;99918.44;;;14.32;34.97
75549;BME280;64133;56.002;37.208;2023-06-10T16:00:18;99927.97;;;14.29;35.07
75549;BME280;64133;56.002;37.208;2023-06-10T16:05:23;99931.47;;;14.40;34.76
75549;BME280;64133;56.002;37.208;2023-06-10T16:10:28;99922.67;;;14.29;34.70
75549;BME280;64133;56.002;37.208;2023-06-10T16:15:32;99938.30;;;14.57;34.30
75549;BME280;64133;56.002;37.208;2023-06-10T16:20:37;99949.54;;;14.40;34.08
75549;BME280;64133;56.002;37.208;2023-06-10T16:25:42;99946.89;;;14.40;34.01
75549;BME280;64133;56.002;37.208;2023-06-10T16:30:46;99954.17;;;14.63;33.87
75549;BME280;64133;56.002;37.208;2023-06-10T16:35:51;99966.02;;;14.44;34.10
75549;BME280;64133;56.002;37.208;2023-06-10T16:40:56;99973.21;;;13.92;35.07
75549;BME280;64133;56.002;37.208;2023-06-10T16:46:01;99969.94;;;13.63;35.94
75549;BME280;64133;56.002;37.208;2023-06-10T16:51:09;99973.03;;;13.47;36.19
75549;BME280;64133;56.002;37.208;2023-06-10T16:56:13;99977.45;;;13.52;36.44
75549;BME280;64133;56.002;37.208;2023-06-10T17:01:18;99985.87;;;13.52;36.19
75549;BME280;64133;56.002;37.208;2023-06-10T17:06:23;99990.20;;;13.53;36.09
75549;BME280;64133;56.002;37.208;2023-06-10T17:11:28;99989.16;;;13.44;36.18
75549;BME280;64133;56.002;37.208;2023-06-10T17:16:33;99990.62;;;13.43;36.12
75549;BME280;64133;56.002;37.208;2023-06-10T17:21:38;99994.45;;;13.44;36.36
75549;BME280;64133;56.002;37.208;2023-06-10T17:26:43;100003.20;;;13.29;36.82
75549;BME280;64133;56.002;37.208;2023-06-10T17:31:48;100007.73;;;12.95;37.52
75549;BME280;64133;56.002;37.208;2023-06-10T17:36:53;100015.34;;;12.83;37.97
75549;BME280;64133;56.002;37.208;2023-06-10T17:41:58;100021.50;;;12.67;38.27
75549;BME280;64133;56.002;37.208;2023-06-10T17:47:03;100018.66;;;12.42;38.92
75549;BME280;64133;56.002;37.208;2023-06-10T17:52:11;100024.55;;;12.28;39.09
75549;BME280;64133;56.002;37.208;2023-06-10T17:57:16;100037.14;;;12.14;39.38
75549;BME280;64133;56.002;37.208;2023-06-10T18:02:20;100038.08;;;11.96;39.83
75549;BME280;64133;56.002;37.208;2023-06-10T18:07:25;100044.78;;;11.83;40.05
75549;BME280;64133;56.002;37.208;2023-06-10T18:12:30;100056.70;;;11.65;40.54
75549;BME280;64133;56.002;37.208;2023-06-10T18:17:35;100061.34;;;11.50;40.83
75549;BME280;64133;56.002;37.208;2023-06-10T18:22:39;100067.41;;;11.45;41.26
75549;BME280;64133;56.002;37.208;2023-06-10T18:27:44;100072.66;;;11.33;41.60
75549;BME280;64133;56.002;37.208;2023-06-10T18:32:48;100078.56;;;11.19;42.08
75549;BME280;64133;56.002;37.208;2023-06-10T18:37:54;100078.52;;;11.07;42.42
75549;BME280;64133;56.002;37.208;2023-06-10T18:43:01;100088.00;;;10.92;42.87
75549;BME280;64133;56.002;37.208;2023-06-10T18:48:05;100090.30;;;10.78;43.67
75549;BME280;64133;56.002;37.208;2023-06-10T18:53:10;100094.02;;;10.75;43.48
75549;BME280;64133;56.002;37.208;2023-06-10T18:58:15;100101.95;;;10.63;44.04
75549;BME280;64133;56.002;37.208;2023-06-10T19:03:20;100100.20;;;10.56;44.41
75549;BME280;64133;56.002;37.208;2023-06-10T19:08:24;100106.80;;;10.43;44.79
75549;BME280;64133;56.002;37.208;2023-06-10T19:13:29;100115.30;;;10.41;45.00
75549;BME280;64133;56.002;37.208;2023-06-10T19:18:34;100119.88;;;10.32;45.14
75549;BME280;64133;56.002;37.208;2023-06-10T19:23:38;100111.23;;;10.23;45.23
75549;BME280;64133;56.002;37.208;2023-06-10T19:28:43;100119.93;;;10.18;45.21
75549;BME280;64133;56.002;37.208;2023-06-10T19:33:48;100121.08;;;10.14;45.20
75549;BME280;64133;56.002;37.208;2023-06-10T19:38:52;100120.31;;;10.06;45.33
75549;BME280;64133;56.002;37.208;2023-06-10T19:43:57;100122.61;;;9.98;45.87
75549;BME280;64133;56.002;37.208;2023-06-10T19:49:04;100119.65;;;9.90;45.84
75549;BME280;64133;56.002;37.208;2023-06-10T19:54:09;100128.33;;;9.85;46.21
75549;BME280;64133;56.002;37.208;2023-06-10T19:59:13;100137.20;;;9.76;46.42
75549;BME280;64133;56.002;37.208;2023-06-10T20:04:18;100140.39;;;9.74;46.43
75549;BME280;64133;56.002;37.208;2023-06-10T20:09:23;100137.50;;;9.72;46.63
75549;BME280;64133;56.002;37.208;2023-06-10T20:14:27;100147.02;;;9.67;46.77
75549;BME280;64133;56.002;37.208;2023-06-10T20:19:32;100154.64;;;9.57;46.89
75549;BME280;64133;56.002;37.208;2023-06-10T20:24:36;100160.98;;;9.48;47.25
75549;BME280;64133;56.002;37.208;2023-06-10T20:29:41;100172.92;;;9.46;47.39
75549;BME280;64133;56.002;37.208;2023-06-10T20:34:46;100176.33;;;9.41;47.82
75549;BME280;64133;56.002;37.208;2023-06-10T20:39:50;100178.12;;;9.34;48.00
75549;BME280;64133;56.002;37.208;2023-06-10T20:44:55;100180.20;;;9.28;48.11
75549;BME280;64133;56.002;37.208;2023-06-10T20:50:00;100186.70;;;9.16;48.61
75549;BME280;64133;56.002;37.208;2023-06-10T20:55:06;100189.80;;;9.08;49.05
75549;BME280;64133;56.002;37.208;2023-06-10T21:00:13;100192.80;;;9.09;49.19
75549;BME280;64133;56.002;37.208;2023-06-10T21:05:18;100194.14;;;9.02;49.43
75549;BME280;64133;56.002;37.208;2023-06-10T21:10:25;100195.92;;;8.94;49.68
75549;BME280;64133;56.002;37.208;2023-06-10T21:15:31;100198.27;;;8.85;50.11
75549;BME280;64133;56.002;37.208;2023-06-10T21:20:36;100202.38;;;8.74;50.45
75549;BME280;64133;56.002;37.208;2023-06-10T21:25:41;100193.95;;;8.62;51.04
75549;BME280;64133;56.002;37.208;2023-06-10T21:30:45;100196.46;;;8.56;51.30
75549;BME280;64133;56.002;37.208;2023-06-10T21:35:50;100200.48;;;8.48;51.64
75549;BME280;64133;56.002;37.208;2023-06-10T21:46:08;100206.11;;;8.42;52.10
75549;BME280;64133;56.002;37.208;2023-06-10T21:51:13;100211.52;;;8.31;52.10
75549;BME280;64133;56.002;37.208;2023-06-10T21:56:17;100210.44;;;8.27;52.21
75549;BME280;64133;56.002;37.208;2023-06-10T22:01:22;100212.02;;;8.15;52.55
75549;BME280;64133;56.002;37.208;2023-06-10T22:06:27;100216.97;;;8.13;52.58
75549;BME280;64133;56.002;37.208;2023-06-10T22:11:31;100222.59;;;8.14;52.56
75549;BME280;64133;56.002;37.208;2023-06-10T22:16:36;100228.51;;;8.10;52.68
75549;BME280;64133;56.002;37.208;2023-06-10T22:21:41;100219.96;;;8.06;52.88
75549;BME280;64133;56.002;37.208;2023-06-10T22:26:45;100219.45;;;8.00;52.89
75549;BME280;64133;56.002;37.208;2023-06-10T22:31:50;100222.61;;;7.91;53.29
75549;BME280;64133;56.002;37.208;2023-06-10T22:36:55;100204.30;;;7.75;53.61
75549;BME280;64133;56.002;37.208;2023-06-10T22:41:59;100228.28;;;7.83;53.72
75549;BME280;64133;56.002;37.208;2023-06-10T22:47:05;100228.17;;;7.77;53.89
75549;BME280;64133;56.002;37.208;2023-06-10T22:52:10;100230.57;;;7.66;54.13
75549;BME280;64133;56.002;37.208;2023-06-10T22:57:15;100235.14;;;7.63;54.36
75549;BME280;64133;56.002;37.208;2023-06-10T23:02:19;100232.93;;;7.55;54.73
75549;BME280;64133;56.002;37.208;2023-06-10T23:07:24;100238.09;;;7.41;55.25
75549;BME280;64133;56.002;37.208;2023-06-10T23:12:29;100240.81;;;7.30;55.75
75549;BME280;64133;56.002;37.208;2023-06-10T23:17:34;100236.86;;;7.23;56.02
75549;BME280;64133;56.002;37.208;2023-06-10T23:22:38;100233.48;;;7.13;56.19
75549;BME280;64133;56.002;37.208;2023-06-10T23:27:43;100238.53;;;7.00;56.52
75549;BME280;64133;56.002;37.208;2023-06-10T23:32:48;100243.42;;;6.90;57.02
75549;BME280;64133;56.002;37.208;2023-06-10T23:37:52;100238.80;;;6.87;57.50
75549;BME280;64133;56.002;37.208;2023-06-10T23:42:57;100241.75;;;6.80;57.66
75549;BME280;64133;56.002;37.208;2023-06-10T23:48:02;100242.76;;;6.69;58.12
75549;BME280;64133;56.002;37.208;2023-06-10T23:53:06;100237.39;;;6.64;58.25
75549;BME280;64133;56.002;37.208;2023-06-10T23:58:11;100239.02;;;6.58;58.73
